This is the latest recevied weather packets stored in our database for station/object JQ2GLP-13. If no packets are shown the sender has not sent any weather packets the latest 10 day(s).
| Time | Temp. | Humidity | Pressure | Rain* | Wind** | Luminosity | Snow |
|---|---|---|---|---|---|---|---|
| 1777716433 | 21.67° C | 34% | 1005.3 hPa | 0 mm | - | - | - |
| 1777714634 | 22.22° C | 32% | 1005.1 hPa | 0 mm | - | - | - |
| 1777712833 | 22.78° C | 32% | 1004.8 hPa | 0 mm | - | - | - |
| 1777711033 | 23.33° C | 31% | 1004.2 hPa | 0 mm | - | - | - |
| 1777709233 | 23.89° C | 29% | 1003.8 hPa | 0 mm | - | - | - |
| 1777707434 | 23.89° C | 28% | 1003.4 hPa | 0 mm | - | - | - |
| 1777705634 | 24.44° C | 28% | 1003 hPa | 0 mm | - | - | - |
| 1777703833 | 25° C | 28% | 1002.7 hPa | 0 mm | - | - | - |
| 1777702035 | 25° C | 28% | 1002.5 hPa | 0 mm | - | - | - |
| 1777700234 | 25.56° C | 28% | 1002.5 hPa | 0 mm | - | - | - |
| 1777698433 | 25.56° C | 27% | 1002.4 hPa | 0 mm | - | - | - |
| 1777696635 | 25.56° C | 30% | 1002.4 hPa | 0 mm | - | - | - |
| 1777694834 | 25° C | 30% | 1002.5 hPa | 0 mm | - | - | - |
| 1777693035 | 24.44° C | 30% | 1002.4 hPa | 0 mm | - | - | - |
| 1777691234 | 23.89° C | 31% | 1002.7 hPa | 0 mm | - | - | - |
| 1777689435 | 23.33° C | 31% | 1002.6 hPa | 0 mm | - | - | - |
| 1777687634 | 22.78° C | 33% | 1002.5 hPa | 0 mm | - | - | - |
| 1777685830 | 22.78° C | 32% | 1002.3 hPa | 0 mm | - | - | - |
| 1777684032 | 21.67° C | 34% | 1002.2 hPa | 0 mm | - | - | - |
| 1777682231 | 21.11° C | 38% | 1002 hPa | 0 mm | - | - | - |
| 1777680432 | 20° C | 42% | 1002 hPa | 0 mm | - | - | - |
| 1777678632 | 18.89° C | 46% | 1001.9 hPa | 0 mm | - | - | - |
| 1777676831 | 18.33° C | 47% | 1001.9 hPa | 0 mm | - | - | - |
| 1777669632 | 15° C | 61% | 1000.1 hPa | 0 mm | - | - | - |
| 1777667831 | 14.44° C | 63% | 999 hPa | 0 mm | - | - | - |
* Rain latest hour (hover to see other rain measurements)
** Current wind speed in m/s (hover to see current wind gust speed)